Time;durP1;ratioP1;P1;durP2;ratioP2;P2;SDS_P1;SDS_P2;PMS_P1;PMS_P2;Temp;Humidity;BMP_temperature;BMP_pressure;BME280_temperature;BME280_humidity;BME280_pressure;Samples;Min_cycle;Max_cycle;Signal;HPM_P1;HPM_P2
2022/09/15 00:01:37;;;;;;;2.20;1.80;;;;;;;18.05;100.00;99230.03;5110452;28;20217;-75
2022/09/15 00:04:03;;;;;;;2.27;1.40;;;;;;;18.05;100.00;99230.88;5106107;28;20254;-75
2022/09/15 00:06:28;;;;;;;2.30;1.43;;;;;;;18.05;100.00;99230.88;5079360;28;20180;-76
2022/09/15 00:08:54;;;;;;;2.13;1.50;;;;;;;18.06;100.00;99235.16;5106597;27;20203;-76
2022/09/15 00:11:28;;;;;;;1.50;1.40;;;;;;;18.07;100.00;99231.63;5103860;28;20197;-76
2022/09/15 00:13:56;;;;;;;3.40;1.43;;;;;;;18.07;100.00;99226.38;5105176;27;20189;-76
2022/09/15 00:16:23;;;;;;;1.50;1.40;;;;;;;18.09;100.00;99229.75;5093081;28;20269;-76
2022/09/15 00:18:49;;;;;;;1.20;1.10;;;;;;;18.09;100.00;99221.06;5111021;27;20287;-76
2022/09/15 00:21:21;;;;;;;1.37;1.27;;;;;;;18.12;100.00;99226.13;5107010;28;20321;-76
2022/09/15 00:23:47;;;;;;;1.57;1.47;;;;;;;18.12;100.00;99215.66;5085062;28;20206;-77
2022/09/15 00:26:15;;;;;;;1.60;1.50;;;;;;;18.10;100.00;99209.66;5093836;28;20203;-77
2022/09/15 00:28:41;;;;;;;1.70;1.40;;;;;;;18.09;100.00;99215.81;5101257;28;20213;-74
2022/09/15 00:31:09;;;;;;;1.70;1.60;;;;;;;18.07;100.00;99221.16;5101831;28;20178;-76
2022/09/15 00:33:35;;;;;;;1.67;1.50;;;;;;;18.06;100.00;99223.88;5082377;28;20190;-76
2022/09/15 00:36:04;;;;;;;2.23;1.70;;;;;;;18.06;100.00;99229.09;5104908;28;20174;-76
2022/09/15 00:38:29;;;;;;;2.93;1.43;;;;;;;18.04;100.00;99223.94;5105856;28;20209;-76
2022/09/15 00:40:56;;;;;;;1.60;1.50;;;;;;;18.03;100.00;99230.09;5105052;28;20184;-77
2022/09/15 00:43:41;;;;;;;1.70;1.60;;;;;;;18.00;100.00;99221.59;5085900;28;20238;-77
2022/09/15 00:46:08;;;;;;;1.33;1.23;;;;;;;17.98;100.00;99222.50;5077773;28;20247;-74
2022/09/15 00:48:35;;;;;;;2.10;1.33;;;;;;;17.97;100.00;99222.59;5096146;28;20197;-75
2022/09/15 00:51:03;;;;;;;1.97;1.67;;;;;;;17.94;100.00;99212.28;5110168;28;20699;-76
2022/09/15 00:53:30;;;;;;;1.60;1.50;;;;;;;17.92;100.00;99214.13;5106040;28;20262;-75
2022/09/15 00:55:56;;;;;;;2.17;1.63;;;;;;;17.89;100.00;99212.56;5114420;28;20191;-75
2022/09/15 00:58:28;;;;;;;2.00;1.50;;;;;;;17.85;100.00;99205.78;5113260;28;20216;-77
2022/09/15 01:00:59;;;;;;;1.73;1.53;;;;;;;17.81;100.00;99209.50;5112812;27;20187;-77
2022/09/15 01:03:29;;;;;;;2.13;1.67;;;;;;;17.80;100.00;99215.66;5102735;27;20844;-77
2022/09/15 01:06:04;;;;;;;1.57;1.47;;;;;;;17.77;100.00;99206.22;5091249;28;20250;-75
2022/09/15 01:08:54;;;;;;;2.40;1.87;;;;;;;17.77;100.00;99208.84;5114368;27;20200;-75
2022/09/15 01:11:20;;;;;;;2.03;1.70;;;;;;;17.78;100.00;99201.81;5100254;28;20650;-76
2022/09/15 01:13:45;;;;;;;2.43;1.90;;;;;;;17.78;100.00;99194.84;5116147;27;20204;-75
2022/09/15 01:16:29;;;;;;;2.57;1.87;;;;;;;17.82;100.00;99191.13;5117728;27;20204;-75
2022/09/15 01:19:03;;;;;;;2.50;1.80;;;;;;;17.86;100.00;99191.78;5111101;27;20222;-75
2022/09/15 01:21:54;;;;;;;2.20;2.00;;;;;;;17.89;100.00;99194.22;5108893;27;20182;-76
2022/09/15 01:24:43;;;;;;;2.33;1.93;;;;;;;17.93;100.00;99190.47;5108287;27;20287;-77
2022/09/15 01:27:18;;;;;;;2.80;2.00;;;;;;;17.92;100.00;99191.41;5092403;27;20211;-75
2022/09/15 01:30:02;;;;;;;2.40;1.70;;;;;;;17.96;100.00;99192.09;5112291;27;20208;-78
2022/09/15 01:33:04;;;;;;;2.07;1.60;;;;;;;17.98;100.00;99180.63;5092562;28;20186;-75
2022/09/15 01:35:47;;;;;;;2.00;1.80;;;;;;;17.96;100.00;99179.84;5128905;27;20201;-75
2022/09/15 01:38:18;;;;;;;3.07;2.00;;;;;;;17.98;100.00;99185.03;5121729;27;20187;-74
2022/09/15 01:41:03;;;;;;;2.20;2.00;;;;;;;18.03;100.00;99187.38;5105389;27;20215;-77
2022/09/15 01:43:31;;;;;;;3.13;2.00;;;;;;;18.03;100.00;99179.53;5108737;27;20258;-76
2022/09/15 01:45:59;;;;;;;3.50;2.37;;;;;;;18.02;100.00;99183.91;5092830;27;20225;-76
2022/09/15 01:48:27;;;;;;;2.30;1.97;;;;;;;18.02;100.00;99185.69;5098593;28;20250;-76
2022/09/15 01:50:56;;;;;;;4.57;2.37;;;;;;;17.97;100.00;99178.09;5110106;27;20524;-76
2022/09/15 01:53:22;;;;;;;2.67;2.37;;;;;;;17.95;100.00;99175.53;5103879;27;20233;-76
2022/09/15 01:56:17;;;;;;;3.27;2.30;;;;;;;17.91;100.00;99176.66;5107645;27;20211;-77
2022/09/15 01:58:42;;;;;;;2.63;2.13;;;;;;;17.90;100.00;99180.22;5083530;27;20215;-75
2022/09/15 02:01:10;;;;;;;3.83;2.33;;;;;;;17.90;100.00;99177.59;5093290;27;20184;-75
2022/09/15 02:03:55;;;;;;;2.80;1.83;;;;;;;17.91;100.00;99186.28;5109546;27;20194;-77
2022/09/15 02:06:34;;;;;;;3.07;2.10;;;;;;;17.94;100.00;99186.09;5106053;27;20204;-76
2022/09/15 02:09:11;;;;;;;2.10;1.73;;;;;;;17.92;100.00;99183.56;5112254;27;20369;-76
2022/09/15 02:11:47;;;;;;;3.23;2.50;;;;;;;17.97;100.00;99186.81;5107176;27;20223;-74
2022/09/15 02:14:19;;;;;;;2.40;2.10;;;;;;;17.99;100.00;99186.72;5105471;27;20185;-77
2022/09/15 02:16:48;;;;;;;1.90;1.70;;;;;;;18.01;100.00;99184.84;5110355;27;20169;-76
2022/09/15 02:19:44;;;;;;;2.60;1.93;;;;;;;18.01;100.00;99181.41;5107178;27;21191;-76
2022/09/15 02:22:22;;;;;;;2.17;1.90;;;;;;;18.03;100.00;99188.22;5104694;27;20249;-76
2022/09/15 02:24:55;;;;;;;1.80;1.67;;;;;;;18.00;100.00;99180.53;5087956;27;20194;-76
2022/09/15 02:27:26;;;;;;;5.93;1.87;;;;;;;18.03;100.00;99179.53;5110765;27;20657;-76
2022/09/15 02:29:57;;;;;;;1.83;1.60;;;;;;;18.02;100.00;99175.22;5112190;27;20610;-76
2022/09/15 02:32:27;;;;;;;2.27;1.77;;;;;;;18.05;100.00;99177.69;5098420;27;20187;-74
2022/09/15 02:34:54;;;;;;;1.97;1.60;;;;;;;18.01;100.00;99174.38;5100484;28;20326;-78
2022/09/15 02:37:21;;;;;;;2.07;1.80;;;;;;;18.00;100.00;99179.69;5109512;27;20186;-75
2022/09/15 02:39:53;;;;;;;2.27;1.70;;;;;;;18.00;100.00;99179.69;5111418;27;20200;-76
2022/09/15 02:42:26;;;;;;;5.83;2.00;;;;;;;18.01;100.00;99176.16;5101975;27;20186;-77
2022/09/15 02:44:52;;;;;;;2.13;1.53;;;;;;;18.01;100.00;99169.13;5112631;27;20233;-76
2022/09/15 02:47:17;;;;;;;3.17;1.53;;;;;;;17.98;100.00;99175.41;5112329;27;20579;-76
2022/09/15 02:49:42;;;;;;;1.90;1.70;;;;;;;18.00;100.00;99177.91;5108534;27;20223;-76
2022/09/15 02:52:08;;;;;;;1.47;1.37;;;;;;;17.97;100.00;99171.09;5109697;27;20270;-76
2022/09/15 02:54:33;;;;;;;2.57;1.70;;;;;;;17.98;100.00;99166.72;5102633;27;21007;-76
2022/09/15 02:56:59;;;;;;;2.47;1.80;;;;;;;17.96;100.00;99163.31;5109256;27;20234;-75
2022/09/15 02:59:25;;;;;;;2.93;1.70;;;;;;;17.96;100.00;99172.00;5091054;28;20689;-75
2022/09/15 03:01:51;;;;;;;2.03;1.60;;;;;;;17.95;100.00;99175.53;5106018;27;20186;-76
2022/09/15 03:04:16;;;;;;;2.87;1.60;;;;;;;17.97;100.00;99172.84;5104560;27;20496;-75
2022/09/15 03:06:42;;;;;;;1.70;1.60;;;;;;;17.98;100.00;99177.19;5095745;28;20597;-77
2022/09/15 03:09:08;;;;;;;5.80;1.50;;;;;;;18.01;100.00;99177.00;5112507;27;20602;-76
2022/09/15 03:11:35;;;;;;;1.80;1.53;;;;;;;18.00;100.00;99175.28;5103311;27;20233;-76
2022/09/15 03:14:03;;;;;;;2.47;1.53;;;;;;;18.02;100.00;99178.69;5088651;28;20180;-75
2022/09/15 03:16:30;;;;;;;1.93;1.77;;;;;;;18.02;100.00;99178.69;5104273;27;20669;-76
2022/09/15 03:18:58;;;;;;;2.00;1.80;;;;;;;18.04;100.00;99176.81;5100269;28;20205;-76
2022/09/15 03:21:25;;;;;;;2.07;1.63;;;;;;;18.07;100.00;99167.97;5087323;28;20172;-76
2022/09/15 03:23:50;;;;;;;2.30;1.70;;;;;;;18.06;100.00;99169.72;5109074;27;20268;-76
2022/09/15 03:26:16;;;;;;;3.10;1.93;;;;;;;18.08;100.00;99173.09;5104787;27;20283;-76
2022/09/15 03:28:41;;;;;;;2.43;1.37;;;;;;;18.11;100.00;99169.44;5108772;27;20304;-76
2022/09/15 03:31:08;;;;;;;1.63;1.33;;;;;;;18.11;100.00;99178.16;5105418;27;20184;-76
2022/09/15 03:33:33;;;;;;;3.13;1.70;;;;;;;18.12;100.00;99182.47;5097490;28;20214;-75
2022/09/15 03:35:59;;;;;;;1.67;1.40;;;;;;;18.15;100.00;99188.47;5111948;27;20550;-76
2022/09/15 03:38:25;;;;;;;3.37;1.67;;;;;;;18.16;100.00;99193.59;5101574;28;20207;-76
2022/09/15 03:41:04;;;;;;;3.63;1.73;;;;;;;18.19;100.00;99189.94;5099533;28;20269;-75
2022/09/15 03:43:30;;;;;;;1.53;1.37;;;;;;;18.19;100.00;99187.31;5107025;27;20692;-75
2022/09/15 03:45:57;;;;;;;1.63;1.40;;;;;;;18.19;100.00;99190.81;5082014;28;20213;-75
2022/09/15 03:48:24;;;;;;;1.57;1.30;;;;;;;18.20;100.00;99179.41;5104971;28;20195;-77
2022/09/15 03:50:50;;;;;;;1.70;1.57;;;;;;;18.20;100.00;99179.41;5099153;28;20211;-75
2022/09/15 03:53:16;;;;;;;2.10;1.43;;;;;;;18.22;100.00;99192.41;5090599;28;20240;-75
2022/09/15 03:55:42;;;;;;;1.50;1.40;;;;;;;18.22;100.00;99188.03;5107801;28;20190;-76
2022/09/15 03:58:07;;;;;;;1.30;1.20;;;;;;;18.23;100.00;99194.91;5086809;28;20662;-75
2022/09/15 04:00:33;;;;;;;2.13;1.33;;;;;;;18.23;100.00;99183.59;5091886;28;20201;-75
2022/09/15 04:02:59;;;;;;;3.60;1.50;;;;;;;18.24;100.00;99182.69;5111341;28;20174;-76
2022/09/15 04:05:24;;;;;;;3.47;1.70;;;;;;;18.24;100.00;99190.53;5101184;28;20990;-75
2022/09/15 04:07:50;;;;;;;1.90;1.50;;;;;;;18.28;100.00;99190.25;5101220;28;20205;-76
2022/09/15 04:10:15;;;;;;;2.60;1.63;;;;;;;18.29;100.00;99196.34;5085646;28;20686;-74
2022/09/15 04:12:41;;;;;;;2.83;1.23;;;;;;;18.23;100.00;99187.06;5105567;28;20169;-76
2022/09/15 04:15:07;;;;;;;3.60;1.70;;;;;;;18.22;100.00;99185.41;5091516;28;20178;-76
2022/09/15 04:17:32;;;;;;;2.03;1.67;;;;;;;18.20;100.00;99192.50;5112257;28;20182;-76
2022/09/15 04:19:57;;;;;;;1.77;1.40;;;;;;;18.19;100.00;99188.19;5095027;28;20238;-76
2022/09/15 04:22:23;;;;;;;2.67;1.67;;;;;;;18.16;100.00;99188.34;5090150;28;20657;-76
2022/09/15 04:24:48;;;;;;;1.73;1.40;;;;;;;18.15;100.00;99183.22;5122458;28;20251;-75
2022/09/15 04:27:15;;;;;;;4.70;1.63;;;;;;;18.12;100.00;99185.09;5116179;28;20188;-75
2022/09/15 04:29:41;;;;;;;1.60;1.50;;;;;;;18.10;100.00;99176.47;5106880;28;20214;-75
2022/09/15 04:32:07;;;;;;;3.03;1.30;;;;;;;18.10;100.00;99186.09;5103492;28;20586;-75
2022/09/15 04:34:32;;;;;;;2.10;1.60;;;;;;;18.09;100.00;99182.63;5115226;27;20184;-75
2022/09/15 04:36:57;;;;;;;2.27;1.40;;;;;;;18.10;100.00;99180.84;5121064;27;20181;-75
2022/09/15 04:39:23;;;;;;;1.83;1.63;;;;;;;18.12;100.00;99173.75;5106456;28;20191;-75
2022/09/15 04:41:48;;;;;;;3.10;1.43;;;;;;;18.11;100.00;99182.53;5084230;28;20210;-75
2022/09/15 04:44:14;;;;;;;1.57;1.30;;;;;;;18.11;100.00;99186.03;5114345;27;20207;-77
2022/09/15 04:46:39;;;;;;;1.30;1.20;;;;;;;18.11;100.00;99193.88;5084657;28;20272;-75
2022/09/15 04:49:04;;;;;;;1.70;1.60;;;;;;;18.11;100.00;99214.81;5113451;27;20197;-74
2022/09/15 04:51:30;;;;;;;2.57;1.80;;;;;;;18.10;100.00;99207.88;5115636;27;20178;-76
2022/09/15 04:53:56;;;;;;;2.87;1.87;;;;;;;18.09;100.00;99208.81;5098900;27;20217;-77
2022/09/15 04:56:24;;;;;;;3.30;1.80;;;;;;;18.09;100.00;99197.50;5087757;28;20176;-76
2022/09/15 04:58:56;;;;;;;2.03;1.77;;;;;;;18.08;100.00;99199.28;5087818;28;20198;-76
2022/09/15 05:01:23;;;;;;;2.03;1.63;;;;;;;18.04;100.00;99202.16;5104995;27;20186;-75
2022/09/15 05:03:49;;;;;;;2.57;1.60;;;;;;;18.01;100.00;99202.34;5116469;27;20240;-77
2022/09/15 05:06:18;;;;;;;2.07;1.87;;;;;;;17.99;100.00;99205.06;5117015;27;20210;-75
2022/09/15 05:08:48;;;;;;;1.87;1.50;;;;;;;17.96;100.00;99205.19;5112533;27;20215;-75
2022/09/15 05:11:13;;;;;;;2.33;1.83;;;;;;;17.95;100.00;99203.50;5101123;28;20186;-75
2022/09/15 05:13:39;;;;;;;1.87;1.40;;;;;;;17.95;100.00;99203.50;5116422;27;20880;-76
2022/09/15 05:16:07;;;;;;;2.57;1.43;;;;;;;17.95;100.00;99206.94;5108900;28;20286;-77
2022/09/15 05:18:32;;;;;;;1.50;1.30;;;;;;;17.94;100.00;99209.66;5122977;27;20212;-77
2022/09/15 05:21:00;;;;;;;1.60;1.50;;;;;;;17.94;100.00;99214.91;5128602;27;20178;-76
2022/09/15 05:23:26;;;;;;;3.10;1.60;;;;;;;17.92;100.00;99199.25;5111952;27;20198;-76
2022/09/15 05:25:59;;;;;;;2.43;1.73;;;;;;;17.92;100.00;99211.53;5108924;27;20592;-77
2022/09/15 05:28:25;;;;;;;3.37;1.80;;;;;;;17.91;100.00;99212.44;5085495;28;20203;-77
2022/09/15 05:30:52;;;;;;;2.30;1.67;;;;;;;17.91;100.00;99217.69;5095564;27;20179;-76
2022/09/15 05:33:22;;;;;;;2.00;1.70;;;;;;;17.91;100.00;99220.31;5109821;27;20935;-77
2022/09/15 05:35:53;;;;;;;2.17;1.30;;;;;;;17.90;100.00;99219.47;5099808;28;20262;-77
2022/09/15 05:38:18;;;;;;;2.23;1.60;;;;;;;17.90;100.00;99224.72;5121561;27;20203;-77
2022/09/15 05:40:44;;;;;;;1.90;1.47;;;;;;;17.89;100.00;99222.16;5112573;27;20179;-76
2022/09/15 05:43:10;;;;;;;1.63;1.50;;;;;;;17.89;100.00;99220.41;5108155;27;20199;-77
2022/09/15 05:45:35;;;;;;;2.00;1.90;;;;;;;17.90;100.00;99223.84;5105873;28;20674;-76
2022/09/15 05:48:01;;;;;;;2.53;1.63;;;;;;;17.89;100.00;99236.09;5119610;27;20180;-77
2022/09/15 05:50:29;;;;;;;2.00;1.70;;;;;;;17.89;100.00;99230.00;5096590;28;20185;-77
2022/09/15 05:52:55;;;;;;;2.03;1.40;;;;;;;17.89;100.00;99227.41;5109140;28;20185;-77
2022/09/15 05:55:21;;;;;;;2.17;1.60;;;;;;;17.89;100.00;99222.16;5092166;27;20173;-77
2022/09/15 05:57:46;;;;;;;2.33;1.40;;;;;;;17.89;100.00;99233.50;5121063;27;20178;-77
2022/09/15 06:00:12;;;;;;;2.10;1.70;;;;;;;17.92;100.00;99222.00;5098157;28;20205;-77
2022/09/15 06:02:37;;;;;;;3.10;2.07;;;;;;;17.90;100.00;99229.94;5113490;28;20563;-77
2022/09/15 06:05:03;;;;;;;1.77;1.57;;;;;;;17.88;100.00;99237.03;5118464;27;20231;-77
2022/09/15 06:07:28;;;;;;;4.27;1.83;;;;;;;17.87;100.00;99227.50;5109021;28;20567;-78
2022/09/15 06:09:54;;;;;;;1.97;1.60;;;;;;;17.85;100.00;99228.53;5091035;28;20331;-77
2022/09/15 06:12:20;;;;;;;1.70;1.60;;;;;;;17.83;100.00;99242.53;5109988;27;20552;-78
2022/09/15 06:14:49;;;;;;;1.70;1.60;;;;;;;17.83;100.00;99233.81;5103712;27;20190;-76
2022/09/15 06:17:15;;;;;;;1.63;1.53;;;;;;;17.84;100.00;99232.91;5108939;27;20186;-78
2022/09/15 06:19:40;;;;;;;1.83;1.63;;;;;;;17.86;100.00;99235.41;5114433;27;20578;-76
2022/09/15 06:22:06;;;;;;;1.90;1.70;;;;;;;17.87;100.00;99237.97;5110273;27;20189;-76
2022/09/15 06:24:31;;;;;;;1.73;1.50;;;;;;;17.88;100.00;99250.13;5088206;28;20208;-76
2022/09/15 06:26:56;;;;;;;1.93;1.30;;;;;;;17.89;100.00;99253.56;5089759;28;20232;-76
2022/09/15 06:29:22;;;;;;;1.50;1.40;;;;;;;17.89;100.00;99251.81;5104225;27;20205;-75
2022/09/15 06:31:47;;;;;;;1.87;1.57;;;;;;;17.90;100.00;99257.88;5111977;27;20690;-76
2022/09/15 06:34:12;;;;;;;1.87;1.47;;;;;;;17.91;100.00;99260.44;5114269;27;20175;-78
2022/09/15 06:36:38;;;;;;;2.00;1.50;;;;;;;17.90;100.00;99260.50;5101847;28;20184;-76
2022/09/15 06:39:03;;;;;;;1.53;1.43;;;;;;;17.87;100.00;99258.91;5115950;27;20224;-75
2022/09/15 06:41:29;;;;;;;2.77;1.57;;;;;;;17.86;100.00;99264.19;5091204;28;20272;-77
2022/09/15 06:43:55;;;;;;;1.80;1.20;;;;;;;17.86;100.00;99262.44;5122643;27;20192;-76
2022/09/15 06:46:23;;;;;;;2.67;1.40;;;;;;;17.87;100.00;99271.97;5106590;28;20560;-74
2022/09/15 06:48:50;;;;;;;2.80;1.90;;;;;;;17.87;100.00;99269.38;5119105;27;20205;-76
2022/09/15 06:51:17;;;;;;;1.23;1.13;;;;;;;17.90;100.00;99265.72;5108008;28;20318;-76
2022/09/15 06:53:44;;;;;;;2.40;1.47;;;;;;;17.90;100.00;99270.97;5109707;27;20201;-77
2022/09/15 06:56:13;;;;;;;1.43;1.33;;;;;;;17.89;100.00;99274.50;5109343;27;20258;-75
2022/09/15 06:58:40;;;;;;;2.37;1.43;;;;;;;17.89;100.00;99274.50;5099330;27;20225;-77
2022/09/15 07:01:13;;;;;;;2.70;1.63;;;;;;;17.90;100.00;99276.19;5118404;27;20683;-77
2022/09/15 07:03:41;;;;;;;2.40;1.60;;;;;;;17.90;100.00;99279.66;5090845;28;20199;-76
2022/09/15 07:06:07;;;;;;;1.67;1.50;;;;;;;17.90;100.00;99276.19;5108724;27;20206;-76
2022/09/15 07:08:33;;;;;;;1.80;1.50;;;;;;;17.89;100.00;99267.50;5108358;27;20334;-76
2022/09/15 07:10:59;;;;;;;3.90;2.00;;;;;;;17.92;100.00;99276.97;5087793;27;20260;-76
2022/09/15 07:13:24;;;;;;;3.07;1.70;;;;;;;17.89;100.00;99279.75;5115865;27;20237;-74
2022/09/15 07:15:52;;;;;;;3.00;1.80;;;;;;;17.90;100.00;99273.56;5106845;27;20183;-76
2022/09/15 07:18:17;;;;;;;2.97;1.87;;;;;;;17.91;100.00;99276.13;5087343;28;20359;-75
2022/09/15 07:20:43;;;;;;;1.83;1.43;;;;;;;17.89;100.00;99277.13;5105763;28;20331;-77
2022/09/15 07:23:08;;;;;;;2.57;1.90;;;;;;;17.89;100.00;99267.50;5114655;27;20187;-77
2022/09/15 07:25:34;;;;;;;5.03;2.00;;;;;;;17.89;100.00;99277.97;5098668;27;20199;-76
2022/09/15 07:28:01;;;;;;;1.87;1.30;;;;;;;17.87;100.00;99282.44;5087930;28;20300;-76
2022/09/15 07:30:26;;;;;;;1.93;1.60;;;;;;;17.89;100.00;99282.34;5107826;27;20846;-77
2022/09/15 07:32:52;;;;;;;2.93;1.80;;;;;;;17.88;100.00;99278.91;5098484;28;20232;-77
2022/09/15 07:35:20;;;;;;;2.20;1.50;;;;;;;17.92;100.00;99282.19;5090023;28;20209;-76
2022/09/15 07:37:45;;;;;;;3.00;1.80;;;;;;;17.96;100.00;99281.94;5098837;28;20187;-74
2022/09/15 07:40:10;;;;;;;1.93;1.70;;;;;;;18.03;100.00;99284.25;5083958;28;20276;-76
2022/09/15 07:42:36;;;;;;;1.97;1.47;;;;;;;18.07;100.00;99288.38;5104788;27;20196;-76
2022/09/15 07:45:02;;;;;;;1.97;1.50;;;;;;;18.13;100.00;99296.75;5119002;27;20954;-76
2022/09/15 07:47:27;;;;;;;3.17;1.93;;;;;;;18.18;100.00;99293.84;5115619;27;20203;-76
2022/09/15 07:49:52;;;;;;;2.83;1.83;;;;;;;18.17;100.00;99301.78;5093234;28;20226;-76
2022/09/15 07:52:18;;;;;;;2.70;1.40;;;;;;;18.18;100.00;99306.09;5100592;28;20262;-76
2022/09/15 07:54:43;;;;;;;2.50;1.40;;;;;;;18.11;100.00;99309.06;5111526;28;20219;-76
2022/09/15 07:57:09;;;;;;;2.03;1.37;;;;;;;18.08;100.00;99318.84;5089354;28;20197;-76
2022/09/15 07:59:34;;;;;;;1.30;1.20;;;;;;;18.08;100.00;99339.78;5087237;28;20243;-75
2022/09/15 08:01:59;;;;;;;4.70;2.10;;;;;;;17.99;100.00;99354.25;5084315;28;20181;-76
2022/09/15 08:04:25;;;;;;;2.10;1.90;;;;;;;17.64;100.00;99357.81;5089448;28;20194;-74
2022/09/15 08:06:51;;;;;;;2.43;2.23;;;;;;;17.31;100.00;99373.50;5102559;28;20185;-76
2022/09/15 08:09:17;;;;;;;2.50;2.30;;;;;;;17.04;100.00;99364.38;5104980;28;20196;-76
2022/09/15 08:11:43;;;;;;;2.00;1.90;;;;;;;16.83;100.00;99365.44;5092787;27;20400;-76
2022/09/15 08:14:08;;;;;;;2.13;1.97;;;;;;;16.68;100.00;99359.19;5118347;27;20214;-75
2022/09/15 08:16:34;;;;;;;2.97;2.77;;;;;;;16.54;100.00;99358.09;5106201;27;20181;-76
2022/09/15 08:19:02;;;;;;;3.13;2.83;;;;;;;16.36;100.00;99361.59;5096024;27;20208;-76
2022/09/15 08:21:28;;;;;;;2.90;2.70;;;;;;;16.32;100.00;99376.56;5117737;27;20268;-76
2022/09/15 08:23:56;;;;;;;4.20;3.50;;;;;;;16.16;100.00;99381.69;5090261;28;20561;-76
2022/09/15 08:26:22;;;;;;;21.70;7.97;;;;;;;15.92;100.00;99394.09;5108221;27;20201;-79
2022/09/15 08:28:48;;;;;;;8.83;6.63;;;;;;;15.67;100.00;99398.59;5109621;27;20207;-77
2022/09/15 08:31:14;;;;;;;9.40;8.23;;;;;;;15.52;100.00;99405.34;5111501;27;20175;-76
2022/09/15 08:33:40;;;;;;;9.87;7.87;;;;;;;15.33;100.00;99404.47;5112169;27;20661;-77
2022/09/15 08:36:10;;;;;;;10.87;9.03;;;;;;;15.20;100.00;99410.16;5104487;28;20210;-77
2022/09/15 08:38:38;;;;;;;12.73;10.37;;;;;;;15.11;100.00;99413.16;5109452;27;20247;-76
2022/09/15 08:41:09;;;;;;;14.70;12.07;;;;;;;15.11;100.00;99421.00;5098854;28;20518;-78
2022/09/15 08:44:07;;;;;;;17.17;13.13;;;;;;;15.10;100.00;99424.50;5109452;28;20187;-77
2022/09/15 08:46:41;;;;;;;19.30;13.93;;;;;;;15.03;100.00;99421.31;5088218;28;20215;-76
2022/09/15 08:49:18;;;;;;;27.00;16.93;;;;;;;15.03;100.00;99428.28;5110888;27;20340;-75
2022/09/15 08:51:48;;;;;;;31.33;16.67;;;;;;;15.03;100.00;99433.50;5090863;28;20187;-80
2022/09/15 08:54:24;;;;;;;21.23;14.47;;;;;;;14.89;100.00;99440.13;5091312;28;20172;-77
2022/09/15 08:56:50;;;;;;;23.93;16.50;;;;;;;14.93;100.00;99449.50;5119174;27;20186;-78
2022/09/15 08:59:17;;;;;;;34.80;19.00;;;;;;;14.96;100.00;99451.16;5101673;27;20243;-78
2022/09/15 09:02:01;;;;;;;23.73;16.17;;;;;;;14.88;100.00;99461.00;5095020;28;20210;-75
2022/09/15 09:04:29;;;;;;;26.37;17.57;;;;;;;14.83;100.00;99461.19;5101017;28;20230;-76
2022/09/15 09:06:57;;;;;;;36.33;19.80;;;;;;;14.77;100.00;99464.03;5086037;27;20181;-77
2022/09/15 09:09:48;;;;;;;28.30;18.77;;;;;;;14.62;100.00;99461.09;5109231;27;20205;-76
2022/09/15 09:12:19;;;;;;;31.63;18.90;;;;;;;14.57;100.00;99455.25;5104101;27;20680;-77
2022/09/15 09:15:10;;;;;;;37.87;20.50;;;;;;;14.55;100.00;99457.06;5092813;27;20603;-79
2022/09/15 09:18:10;;;;;;;35.43;22.30;;;;;;;14.52;100.00;99477.16;5074668;28;20185;-76
2022/09/15 09:20:38;;;;;;;30.77;21.30;;;;;;;14.46;100.00;99473.88;5105510;28;20181;-77
2022/09/15 09:23:12;;;;;;;38.83;22.83;;;;;;;14.43;100.00;99475.75;5120132;27;20200;-77
2022/09/15 09:25:40;;;;;;;28.07;19.27;;;;;;;14.38;100.00;99491.50;5114869;27;20228;-77
2022/09/15 09:28:22;;;;;;;34.23;23.47;;;;;;;14.43;100.00;99484.41;5120776;27;20193;-76
2022/09/15 09:30:47;;;;;;;43.00;26.37;;;;;;;14.44;100.00;99462.66;5115403;27;20245;-78
2022/09/15 09:33:43;;;;;;;39.73;24.17;;;;;;;14.40;100.00;99475.84;5096850;28;20655;-79
2022/09/15 09:36:10;;;;;;;39.20;22.93;;;;;;;14.35;100.00;99476.03;5089097;28;20183;-76
2022/09/15 09:38:42;;;;;;;37.53;23.00;;;;;;;14.38;100.00;99480.28;5109394;27;20208;-77
2022/09/15 09:41:14;;;;;;;31.83;21.53;;;;;;;14.42;100.00;99495.72;5092179;27;20350;-80
2022/09/15 09:43:41;;;;;;;42.13;25.00;;;;;;;14.45;100.00;99494.72;5097641;27;20590;-79
2022/09/15 09:46:16;;;;;;;34.37;22.33;;;;;;;14.42;100.00;99502.69;5085338;28;20605;-77
2022/09/15 09:48:55;;;;;;;28.57;20.63;;;;;;;14.44;100.00;99519.94;5115885;27;20198;-78
2022/09/15 09:51:32;;;;;;;33.93;23.43;;;;;;;14.40;100.00;99515.75;5109171;27;20186;-80
2022/09/15 09:54:14;;;;;;;45.30;28.20;;;;;;;14.36;100.00;99503.75;5100969;28;20187;-80
2022/09/15 09:56:41;;;;;;;56.80;32.90;;;;;;;14.30;100.00;99501.38;5086673;27;20625;-78
2022/09/15 09:59:29;;;;;;;48.63;29.67;;;;;;;14.21;100.00;99496.53;5087748;28;20230;-76
2022/09/15 10:02:09;;;;;;;44.77;28.97;;;;;;;14.31;100.00;99498.72;5108283;27;20195;-78
2022/09/15 10:04:56;;;;;;;46.97;28.50;;;;;;;14.31;100.00;99501.31;5084654;28;20193;-78
2022/09/15 10:07:25;;;;;;;48.00;30.03;;;;;;;14.31;100.00;99496.09;5089430;27;20229;-78
2022/09/15 10:09:56;;;;;;;48.03;30.60;;;;;;;14.29;100.00;99490.09;5111276;27;20301;-77
2022/09/15 10:12:25;;;;;;;46.50;30.43;;;;;;;14.31;100.00;99493.50;5083208;28;20187;-78
2022/09/15 10:14:54;;;;;;;41.83;28.47;;;;;;;14.23;100.00;99494.69;5113775;27;20179;-77
2022/09/15 10:17:23;;;;;;;43.00;27.70;;;;;;;14.13;100.00;99492.44;5086604;28;20182;-78
2022/09/15 10:19:54;;;;;;;36.37;25.30;;;;;;;14.07;100.00;99491.81;5110855;27;20214;-78
2022/09/15 10:22:38;;;;;;;31.67;22.57;;;;;;;14.11;100.00;99498.59;5093645;28;20184;-77
2022/09/15 10:25:19;;;;;;;28.70;21.73;;;;;;;14.23;100.00;99494.69;5078826;27;20700;-77
2022/09/15 10:28:10;;;;;;;29.43;22.10;;;;;;;14.42;100.00;99505.28;5090779;27;20191;-78
2022/09/15 10:30:36;;;;;;;32.20;22.07;;;;;;;14.49;100.00;99517.16;5096201;28;20184;-78
2022/09/15 10:33:24;;;;;;;25.50;19.43;;;;;;;14.61;100.00;99511.47;5100970;27;20200;-77
2022/09/15 10:35:50;;;;;;;24.93;19.40;;;;;;;14.71;100.00;99508.56;5105029;27;20537;-77
2022/09/15 10:38:46;;;;;;;24.97;19.40;;;;;;;14.78;100.00;99510.00;5100063;28;20184;-76
2022/09/15 10:41:31;;;;;;;26.20;19.60;;;;;;;14.89;100.00;99507.84;5089425;27;20201;-77
2022/09/15 10:44:15;;;;;;;29.03;21.63;;;;;;;14.87;100.00;99508.81;5081100;28;20267;-77
2022/09/15 10:47:01;;;;;;;27.50;21.10;;;;;;;14.80;100.00;99517.78;5105513;27;20211;-78
2022/09/15 10:49:45;;;;;;;25.93;19.40;;;;;;;14.89;100.00;99509.59;5103359;27;20200;-78
2022/09/15 10:52:29;;;;;;;25.13;17.97;;;;;;;14.97;100.00;99510.16;5084262;28;20203;-78
2022/09/15 10:55:12;;;;;;;20.47;16.33;;;;;;;15.02;100.00;99510.81;5092124;28;20180;-79
2022/09/15 10:57:50;;;;;;;16.30;14.57;;;;;;;15.12;100.00;99526.09;5105365;28;20734;-78
2022/09/15 11:00:19;;;;;;;18.67;15.77;;;;;;;15.20;100.00;99521.41;5107278;27;20203;-76
2022/09/15 11:03:09;;;;;;;18.70;14.83;;;;;;;15.23;100.00;99521.28;5110198;27;20191;-77
2022/09/15 11:05:55;;;;;;;25.63;17.53;;;;;;;15.31;100.00;99523.59;5106075;27;20212;-78
2022/09/15 11:08:42;;;;;;;15.40;13.47;;;;;;;15.30;100.00;99525.31;5104377;27;20212;-78
2022/09/15 11:11:56;;;;;;;20.30;14.40;;;;;;;15.35;100.00;99530.38;5091113;28;20198;-77
2022/09/15 11:14:42;;;;;;;16.83;13.03;;;;;;;15.27;100.00;99527.22;5082625;28;20181;-76
2022/09/15 11:17:42;;;;;;;16.17;13.43;;;;;;;15.35;100.00;99530.38;5102893;27;20188;-77
2022/09/15 11:20:52;;;;;;;17.00;13.93;;;;;;;15.35;100.00;99536.41;5101874;27;20221;-77
2022/09/15 11:23:46;;;;;;;16.77;12.63;;;;;;;15.32;100.00;99544.38;5061994;27;20215;-79
2022/09/15 11:26:49;;;;;;;16.70;13.23;;;;;;;15.53;100.00;99554.84;5074342;28;20307;-77
2022/09/15 11:29:14;;;;;;;13.97;12.00;;;;;;;15.80;100.00;99549.38;5109094;27;20216;-79
2022/09/15 11:31:49;;;;;;;13.80;11.47;;;;;;;16.01;100.00;99550.25;5084950;28;20197;-76
2022/09/15 11:34:18;;;;;;;16.53;11.73;;;;;;;16.12;100.00;99544.56;5091960;28;20192;-77
2022/09/15 11:36:53;;;;;;;17.03;12.30;;;;;;;16.16;100.00;99538.28;5115157;27;20218;-76
2022/09/15 11:39:24;;;;;;;13.60;10.60;;;;;;;16.19;100.00;99550.34;5086655;28;20697;-76